x

Freeport, Tx - 60 Nm South Of Freeport, Tx (42019) Wave Buoy

7:50am - Sat 29th Aug 2015 All times are CDT. -5 hours from GMT.

  • Sig Wave height 1.3ft
  • Swell Direction
  • Peak Period 4s
  • Average Period 3s
  • Wind
    7mph, 9mph gusts
  • Sea Temp 85°f
  • Air Temp 83°f
  • Sea Pressure 1016.2mb
  • Freeport, Tx - 60 Nm South Of Freeport, Tx
  • Freeport, Tx - 60 Nm South Of Freeport, Tx

More Historic Weather Station data

Upgrade to MSW Pro to gain access to the past 30 days of data for over 8000 Wavebouys and Weather Stations around the globe.

Join Pro

Comparision Forecast

View Surf forecast
   
Sat 08/29 7:50am 1.3ft 4s 3s 7 9 mph 1016.2mb 85f 83f
6:50am 1.3ft 3s 3s 9 11 mph 1015.6mb 85f 83f
5:50am 1.3ft 3s 3s 11 13 mph 1014.9mb 85f 83f
4:50am 1.3ft 4s 3s 11 18 mph 1014.8mb 85f 82f
3:50am 1.3ft 3s 3s 9 11 mph 1015.2mb 85f 82f
2:50am 1.6ft 3s 3s 9 13 mph 1015.5mb 85f 82f
1:50am 1.6ft 3s 3s 9 11 mph 1015.8mb 85f 82f
12:50am 1.6ft 3s 3s 13 18 mph 1016mb 85f 83f
Fri 08/28 11:50pm 1.6ft 3s 3s 16 18 mph 1016.1mb 85f 83f
10:50pm 1.3ft 3s 3s 13 20 mph 1016.1mb 85f 83f
9:50pm 1.3ft 3s 3s 13 18 mph 1015.8mb 85f 83f
8:50pm 1.3ft 4s 3s 11 16 mph 1014.9mb 86f 83f
7:50pm 1.3ft 4s 3s 11 13 mph 1014.5mb 86f 83f
6:50pm 1.3ft 4s 4s 9 11 mph 1014.3mb 86f 83f
5:50pm 1.3ft 5s 4s 9 11 mph 1014.6mb 86f 83f
4:50pm 1.6ft 5s 4s 9 11 mph 1014.7mb 86f 83f
3:50pm 1.6ft 5s 4s 9 11 mph 1015.1mb 86f 83f
2:50pm 1.6ft 5s 4s 9 11 mph 1015.5mb 86f 83f
1:50pm 1.3ft 5s 4s 9 13 mph 1015.9mb 86f 83f
12:50pm 1.3ft 5s 4s 9 11 mph 1016.2mb 86f 83f
11:50am 1.3ft 5s 4s 9 11 mph 1016.6mb 86f 84f
10:50am 1.3ft 5s 4s 4
mph
1016.6mb 85f 83f
9:50am 1.3ft 5s 4s  -  2 mph 1016.2mb 85f 85f
8:50am 1.3ft 5s 4s 4
mph
1015.7mb 85f 83f
7:50am 1.6ft 5s 4s 7 9 mph 1015.3mb 85f 82f
6:50am 1.3ft 4s 4s 7
mph
1014.7mb 85f 83f
5:50am 1.3ft 5s 4s 9 11 mph 1014.2mb 85f 83f
4:50am 1.3ft 5s 4s 9 11 mph 1014mb 85f 83f
3:50am 1.3ft 5s 4s 9 11 mph 1014.1mb 85f 83f
2:50am 1.6ft 5s 4s 7 9 mph 1014.9mb 85f 83f
1:50am 1.6ft 4s 4s 7 9 mph 1015.5mb 85f 83f
12:50am 1.6ft 5s 4s 7 9 mph 1015.9mb 85f 83f
Thu 08/27 11:50pm 1.6ft 5s 4s 7 9 mph 1016.2mb 85f 84f
10:50pm 1.6ft 5s 4s 9 11 mph 1016.4mb 85f 84f
9:50pm 1.6ft 4s 4s 7 9 mph 1016.2mb 85f 84f
8:50pm 1.6ft 4s 4s 7 9 mph 1015.5mb 85f 83f
7:50pm 1.6ft 4s 4s 11 13 mph 1015.3mb 85f 84f
6:50pm 1.6ft 4s 4s 9 11 mph 1015.1mb 86f 84f
5:50pm 1.3ft 5s 4s 9 13 mph 1015.3mb 86f 84f
4:50pm 1.3ft 5s 4s 11 13 mph 1015.3mb 86f 83f
3:50pm 1.6ft 5s 4s 9 11 mph 1015.7mb 86f 83f
2:50pm 1.6ft 5s 4s 9 11 mph 1016.6mb 86f 83f
1:50pm 1.3ft 5s 4s 9 11 mph 1017mb 86f 83f
12:50pm 1.6ft 5s 4s 7 9 mph 1017.8mb 85f 83f
11:50am 1.6ft 5s 4s 9 11 mph 1018.3mb 85f 83f
10:50am 1.6ft 5s 4s 7 11 mph 1018mb 85f 83f
9:50am 1.6ft 5s 4s 9 11 mph 1017.9mb 85f 83f
1:50am 2.5ft 6s 4s 13 16 mph 1016.3mb 85f 83f
12:50am 3ft 6s 4s 13 16 mph 1016.9mb 85f 83f
Wed 08/26 11:50pm 3ft 6s 4s 13 18 mph 1017.2mb 85f 83f
10:50pm 3.5ft 5s 4s 13 18 mph 1017.8mb 85f 83f
9:50pm 3.5ft 5s 5s 13 16 mph 1017.6mb 85f 83f
8:50pm 3.5ft 6s 4s 11 13 mph 1017.1mb 85f 83f
7:50pm 3.5ft 5s 4s 11 13 mph 1016.9mb 85f 83f
6:50pm 2.5ft 5s 4s 11 16 mph 1016.9mb 85f 84f
5:50pm 3ft 4s 4s 13 16 mph 1016.8mb 85f 84f
4:50pm 2.5ft 5s 4s 13 16 mph 1017.2mb 85f 84f
3:50pm 2ft 4s 4s 13 18 mph 1017.4mb 85f 84f
2:50pm 2ft 4s 4s 11 13 mph 1017.8mb 85f 84f
1:50pm 1.6ft 4s 3s 11 13 mph 1018.2mb 85f 85f
12:50pm 1.6ft 4s 4s 9 11 mph 1018.8mb 85f 84f
11:50am 1.6ft 4s 3s 11 13 mph 1019mb 85f 84f
10:50am 1.3ft 4s 4s 11 13 mph 1019mb 85f 84f
9:50am 1.3ft 4s 4s 11 13 mph 1018.4mb 85f 83f
8:50am 1.3ft 4s 4s 4 7 mph 1017.9mb 85f 82f
7:50am 1.3ft 5s 4s 4
mph
1017.6mb 85f 80f
6:50am 1.6ft 5s 4s 4 7 mph 1017.1mb 85f 79f
5:50am 2ft 5s 4s 4 9 mph 1017mb 85f 78f
4:50am 2ft 5s 4s 16 20 mph 1016.2mb 85f 84f
3:50am 2.5ft 5s 4s 7
mph
1016mb 85f 85f
2:50am 2.5ft 5s 4s 9 11 mph 1015.7mb 85f 85f
1:50am 3ft 6s 4s 4 7 mph 1015.7mb 85f 85f
12:50am 3.5ft 5s 5s 7
mph
1016.2mb 85f 85f
Tue 08/25 11:50pm 3.5ft 5s 5s 4 7 mph 1016.3mb 85f 85f
10:50pm 4.5ft 6s 5s 7
mph
1016.3mb 85f 85f
9:50pm 4.5ft 6s 5s 13 18 mph 1015.7mb 85f 85f
8:50pm 5ft 6s 5s 20 22 mph 1015.2mb 85f 85f
7:50pm 4.5ft 5s 4s 22 25 mph 1014.7mb 85f 83f
6:50pm 4.5ft 5s 4s 27 34 mph 1016.4mb 85f 82f
5:50pm 2.5ft 3s 3s 34 38 mph 1016.5mb 86f 81f
4:50pm 1ft 6s 5s 11 13 mph 1016.9mb 87f 86f
3:50pm 0.7ft  -  4s 7 9 mph 1016.2mb 87f 85f
2:50pm 1ft 5s 4s 7 9 mph 1016.7mb 87f 85f
1:50pm 1ft 5s 4s 7 9 mph 1017.3mb 87f 85f